sensor_id;sensor_type;location;lat;lon;timestamp;pressure;altitude;pressure_sealevel;temperature;humidity
34931;BME280;21134;49.646;8.560;2023-05-23T00:01:07;100277.59;;;17.09;100.00
34931;BME280;21134;49.646;8.560;2023-05-23T00:03:34;100279.44;;;17.06;100.00
34931;BME280;21134;49.646;8.560;2023-05-23T00:06:00;100272.53;;;17.06;100.00
34931;BME280;21134;49.646;8.560;2023-05-23T00:08:28;100279.50;;;17.04;100.00
34931;BME280;21134;49.646;8.560;2023-05-23T00:10:55;100279.50;;;17.04;100.00
34931;BME280;21134;49.646;8.560;2023-05-23T00:13:21;100276.84;;;17.06;100.00
34931;BME280;21134;49.646;8.560;2023-05-23T00:15:49;100270.88;;;17.04;100.00
34931;BME280;21134;49.646;8.560;2023-05-23T00:18:16;100274.38;;;17.03;100.00
34931;BME280;21134;49.646;8.560;2023-05-23T00:20:43;100268.41;;;17.01;100.00
34931;BME280;21134;49.646;8.560;2023-05-23T00:23:11;100271.03;;;16.99;100.00
34931;BME280;21134;49.646;8.560;2023-05-23T00:25:43;100274.63;;;16.93;100.00
34931;BME280;21134;49.646;8.560;2023-05-23T00:28:13;100272.13;;;16.92;100.00
34931;BME280;21134;49.646;8.560;2023-05-23T00:30:39;100276.47;;;16.90;100.00
34931;BME280;21134;49.646;8.560;2023-05-23T00:33:07;100276.53;;;16.88;100.00
34931;BME280;21134;49.646;8.560;2023-05-23T00:35:34;100276.66;;;16.84;100.00
34931;BME280;21134;49.646;8.560;2023-05-23T00:38:00;100276.84;;;16.78;100.00
34931;BME280;21134;49.646;8.560;2023-05-23T00:40:27;100276.06;;;16.76;100.00
34931;BME280;21134;49.646;8.560;2023-05-23T00:42:54;100263.97;;;16.74;100.00
34931;BME280;21134;49.646;8.560;2023-05-23T00:45:20;100276.00;;;16.77;100.00
34931;BME280;21134;49.646;8.560;2023-05-23T00:47:48;100277.78;;;16.75;100.00
34931;BME280;21134;49.646;8.560;2023-05-23T00:50:17;100281.28;;;16.72;100.00
34931;BME280;21134;49.646;8.560;2023-05-23T00:52:47;100283.25;;;16.64;100.00
34931;BME280;21134;49.646;8.560;2023-05-23T00:55:13;100278.22;;;16.60;100.00
34931;BME280;21134;49.646;8.560;2023-05-23T00:57:40;100287.00;;;16.54;100.00
34931;BME280;21134;49.646;8.560;2023-05-23T01:00:09;100292.47;;;16.43;100.00
34931;BME280;21134;49.646;8.560;2023-05-23T01:02:39;100290.94;;;16.36;100.00
34931;BME280;21134;49.646;8.560;2023-05-23T01:05:08;100286.72;;;16.34;100.00
34931;BME280;21134;49.646;8.560;2023-05-23T01:07:36;100291.97;;;16.31;100.00
34931;BME280;21134;49.646;8.560;2023-05-23T01:10:03;100289.25;;;16.35;100.00
34931;BME280;21134;49.646;8.560;2023-05-23T01:12:36;100291.09;;;16.30;100.00
34931;BME280;21134;49.646;8.560;2023-05-23T01:15:08;100291.25;;;16.24;100.00
34931;BME280;21134;49.646;8.560;2023-05-23T01:17:44;100288.81;;;16.19;100.00
34931;BME280;21134;49.646;8.560;2023-05-23T01:20:15;100292.38;;;16.15;100.00
34931;BME280;21134;49.646;8.560;2023-05-23T01:23:09;100292.38;;;16.15;100.00
34931;BME280;21134;49.646;8.560;2023-05-23T01:25:47;100290.00;;;16.08;100.00
34931;BME280;21134;49.646;8.560;2023-05-23T01:28:27;100288.28;;;16.08;100.00
34931;BME280;21134;49.646;8.560;2023-05-23T01:30:57;100291.88;;;16.02;100.00
34931;BME280;21134;49.646;8.560;2023-05-23T01:33:24;100294.56;;;15.98;100.00
34931;BME280;21134;49.646;8.560;2023-05-23T01:35:51;100300.69;;;15.94;100.00
34931;BME280;21134;49.646;8.560;2023-05-23T01:38:18;100307.69;;;15.89;100.00
34931;BME280;21134;49.646;8.560;2023-05-23T01:40:45;100303.59;;;15.81;100.00
34931;BME280;21134;49.646;8.560;2023-05-23T01:43:11;100309.63;;;15.80;100.00
34931;BME280;21134;49.646;8.560;2023-05-23T01:45:39;100308.81;;;15.78;100.00
34931;BME280;21134;49.646;8.560;2023-05-23T01:48:07;100312.31;;;15.76;100.00
34931;BME280;21134;49.646;8.560;2023-05-23T01:50:35;100320.94;;;15.75;100.00
34931;BME280;21134;49.646;8.560;2023-05-23T01:53:01;100314.06;;;15.75;100.00
34931;BME280;21134;49.646;8.560;2023-05-23T01:55:28;100319.22;;;15.75;100.00
34931;BME280;21134;49.646;8.560;2023-05-23T01:57:56;100310.63;;;15.75;100.00
34931;BME280;21134;49.646;8.560;2023-05-23T02:00:23;100319.34;;;15.71;100.00
34931;BME280;21134;49.646;8.560;2023-05-23T02:02:51;100319.38;;;15.69;100.00
34931;BME280;21134;49.646;8.560;2023-05-23T02:05:18;100321.16;;;15.67;100.00
34931;BME280;21134;49.646;8.560;2023-05-23T02:07:44;100322.88;;;15.65;100.00
34931;BME280;21134;49.646;8.560;2023-05-23T02:10:11;100312.75;;;15.57;100.00
34931;BME280;21134;49.646;8.560;2023-05-23T02:12:37;100315.97;;;15.66;100.00
34931;BME280;21134;49.646;8.560;2023-05-23T02:15:05;100312.72;;;15.59;100.00
34931;BME280;21134;49.646;8.560;2023-05-23T02:17:31;100316.25;;;15.55;100.00
34931;BME280;21134;49.646;8.560;2023-05-23T02:19:59;100319.81;;;15.51;100.00
34931;BME280;21134;49.646;8.560;2023-05-23T02:22:26;100322.59;;;15.42;100.00
34931;BME280;21134;49.646;8.560;2023-05-23T02:24:52;100330.41;;;15.39;100.00
34931;BME280;21134;49.646;8.560;2023-05-23T02:27:19;100337.38;;;15.35;100.00
34931;BME280;21134;49.646;8.560;2023-05-23T02:29:45;100342.53;;;15.35;100.00
34931;BME280;21134;49.646;8.560;2023-05-23T02:32:12;100335.69;;;15.32;100.00
34931;BME280;21134;49.646;8.560;2023-05-23T02:34:38;100345.13;;;15.33;100.00
34931;BME280;21134;49.646;8.560;2023-05-23T02:37:07;100344.22;;;15.34;100.00
34931;BME280;21134;49.646;8.560;2023-05-23T02:39:35;100347.75;;;15.32;100.00
34931;BME280;21134;49.646;8.560;2023-05-23T02:42:02;100354.59;;;15.31;100.00
34931;BME280;21134;49.646;8.560;2023-05-23T02:44:28;100358.91;;;15.32;100.00
34931;BME280;21134;49.646;8.560;2023-05-23T02:46:55;100357.13;;;15.34;100.00
34931;BME280;21134;49.646;8.560;2023-05-23T02:49:21;100357.94;;;15.38;100.00
34931;BME280;21134;49.646;8.560;2023-05-23T02:51:48;100369.03;;;15.40;100.00
34931;BME280;21134;49.646;8.560;2023-05-23T02:54:16;100366.50;;;15.39;100.00
34931;BME280;21134;49.646;8.560;2023-05-23T02:56:44;100371.53;;;15.45;100.00
34931;BME280;21134;49.646;8.560;2023-05-23T02:59:10;100371.47;;;15.46;100.00
34931;BME280;21134;49.646;8.560;2023-05-23T03:01:37;100367.22;;;15.44;100.00
34931;BME280;21134;49.646;8.560;2023-05-23T03:04:04;100368.03;;;15.46;100.00
34931;BME280;21134;49.646;8.560;2023-05-23T03:06:30;100368.88;;;15.46;100.00
34931;BME280;21134;49.646;8.560;2023-05-23T03:08:58;100372.34;;;15.45;100.00
34931;BME280;21134;49.646;8.560;2023-05-23T03:11:26;100361.97;;;15.48;100.00
34931;BME280;21134;49.646;8.560;2023-05-23T03:13:53;100368.00;;;15.47;100.00
34931;BME280;21134;49.646;8.560;2023-05-23T03:16:20;100369.03;;;15.40;100.00
34931;BME280;21134;49.646;8.560;2023-05-23T03:18:47;100377.66;;;15.39;100.00
34931;BME280;21134;49.646;8.560;2023-05-23T03:21:14;100372.56;;;15.36;100.00
34931;BME280;21134;49.646;8.560;2023-05-23T03:23:40;100383.78;;;15.33;100.00
34931;BME280;21134;49.646;8.560;2023-05-23T03:26:07;100382.03;;;15.35;100.00
34931;BME280;21134;49.646;8.560;2023-05-23T03:28:35;100375.97;;;15.38;100.00
34931;BME280;21134;49.646;8.560;2023-05-23T03:31:01;100376.69;;;15.43;100.00
34931;BME280;21134;49.646;8.560;2023-05-23T03:33:28;100377.53;;;15.45;100.00
34931;BME280;21134;49.646;8.560;2023-05-23T03:35:54;100374.94;;;15.45;100.00
34931;BME280;21134;49.646;8.560;2023-05-23T03:38:21;100379.25;;;15.45;100.00
34931;BME280;21134;49.646;8.560;2023-05-23T03:40:48;100375.78;;;15.46;100.00
34931;BME280;21134;49.646;8.560;2023-05-23T03:43:14;100381.84;;;15.43;100.00
34931;BME280;21134;49.646;8.560;2023-05-23T03:45:42;100388.63;;;15.47;100.00
34931;BME280;21134;49.646;8.560;2023-05-23T03:48:09;100386.94;;;15.46;100.00
34931;BME280;21134;49.646;8.560;2023-05-23T03:50:36;100388.53;;;15.52;100.00
34931;BME280;21134;49.646;8.560;2023-05-23T03:53:03;100396.94;;;15.60;100.00
34931;BME280;21134;49.646;8.560;2023-05-23T03:55:30;100390.94;;;15.59;100.00
34931;BME280;21134;49.646;8.560;2023-05-23T03:57:57;100396.75;;;15.69;99.65
34931;BME280;21134;49.646;8.560;2023-05-23T04:00:23;100391.22;;;15.85;95.75
34931;BME280;21134;49.646;8.560;2023-05-23T04:02:52;100394.88;;;15.76;96.63
34931;BME280;21134;49.646;8.560;2023-05-23T04:05:18;100388.09;;;15.72;96.25
34931;BME280;21134;49.646;8.560;2023-05-23T04:07:45;100389.00;;;15.71;96.13
34931;BME280;21134;49.646;8.560;2023-05-23T04:10:12;100401.84;;;15.72;96.20
34931;BME280;21134;49.646;8.560;2023-05-23T04:12:38;100404.47;;;15.71;95.91
34931;BME280;21134;49.646;8.560;2023-05-23T04:15:06;100405.31;;;15.71;95.61
34931;BME280;21134;49.646;8.560;2023-05-23T04:17:33;100405.72;;;15.90;93.65
34931;BME280;21134;49.646;8.560;2023-05-23T04:20:01;100407.69;;;15.80;94.24
34931;BME280;21134;49.646;8.560;2023-05-23T04:22:28;100414.59;;;15.78;94.59
34931;BME280;21134;49.646;8.560;2023-05-23T04:24:54;100423.19;;;15.79;94.66
34931;BME280;21134;49.646;8.560;2023-05-23T04:27:20;100429.22;;;15.78;95.23
34931;BME280;21134;49.646;8.560;2023-05-23T04:29:50;100421.53;;;15.76;95.04
34931;BME280;21134;49.646;8.560;2023-05-23T04:32:16;100418.91;;;15.78;95.54
34931;BME280;21134;49.646;8.560;2023-05-23T04:34:47;100429.22;;;15.79;95.36
34931;BME280;21134;49.646;8.560;2023-05-23T04:37:15;100436.00;;;15.82;95.34
34931;BME280;21134;49.646;8.560;2023-05-23T04:39:46;100433.13;;;15.94;94.77
34931;BME280;21134;49.646;8.560;2023-05-23T04:42:13;100439.69;;;16.08;94.03
34931;BME280;21134;49.646;8.560;2023-05-23T04:44:40;100437.81;;;16.14;94.55
34931;BME280;21134;49.646;8.560;2023-05-23T04:47:07;100437.88;;;16.13;93.95
34931;BME280;21134;49.646;8.560;2023-05-23T04:49:35;100436.88;;;16.18;94.42
34931;BME280;21134;49.646;8.560;2023-05-23T04:52:01;100452.31;;;16.20;94.13
34931;BME280;21134;49.646;8.560;2023-05-23T04:54:29;100448.88;;;16.19;93.43
34931;BME280;21134;49.646;8.560;2023-05-23T04:56:55;100451.53;;;16.16;94.42
34931;BME280;21134;49.646;8.560;2023-05-23T04:59:22;100449.72;;;16.20;94.64
34931;BME280;21134;49.646;8.560;2023-05-23T05:01:48;100452.44;;;16.15;94.84
34931;BME280;21134;49.646;8.560;2023-05-23T05:04:15;100458.38;;;16.17;94.50
34931;BME280;21134;49.646;8.560;2023-05-23T05:06:41;100464.22;;;16.25;94.33
34931;BME280;21134;49.646;8.560;2023-05-23T05:09:08;100458.13;;;16.28;93.84
34931;BME280;21134;49.646;8.560;2023-05-23T05:11:36;100470.75;;;16.40;93.62
34931;BME280;21134;49.646;8.560;2023-05-23T05:14:02;100481.03;;;16.76;89.57
34931;BME280;21134;49.646;8.560;2023-05-23T05:16:29;100481.16;;;16.70;89.58
34931;BME280;21134;49.646;8.560;2023-05-23T05:18:56;100485.97;;;16.84;88.58
34931;BME280;21134;49.646;8.560;2023-05-23T05:21:22;100483.22;;;16.91;87.41
34931;BME280;21134;49.646;8.560;2023-05-23T05:23:49;100482.41;;;16.88;87.49
34931;BME280;21134;49.646;8.560;2023-05-23T05:26:15;100482.31;;;16.92;88.48
34931;BME280;21134;49.646;8.560;2023-05-23T05:28:43;100484.16;;;16.87;88.25
34931;BME280;21134;49.646;8.560;2023-05-23T05:31:10;100490.88;;;16.94;89.38
34931;BME280;21134;49.646;8.560;2023-05-23T05:33:39;100489.16;;;16.93;88.20
34931;BME280;21134;49.646;8.560;2023-05-23T05:36:06;100495.19;;;16.94;88.32
34931;BME280;21134;49.646;8.560;2023-05-23T05:38:33;100492.25;;;17.06;87.55
34931;BME280;21134;49.646;8.560;2023-05-23T05:40:59;100491.25;;;17.12;86.85
34931;BME280;21134;49.646;8.560;2023-05-23T05:43:26;100495.53;;;17.13;86.74
34931;BME280;21134;49.646;8.560;2023-05-23T05:45:53;100495.53;;;17.13;86.23
34931;BME280;21134;49.646;8.560;2023-05-23T05:48:20;100507.78;;;17.06;86.98
34931;BME280;21134;49.646;8.560;2023-05-23T05:50:46;100511.19;;;17.08;87.33
34931;BME280;21134;49.646;8.560;2023-05-23T05:53:13;100510.25;;;17.11;86.27
34931;BME280;21134;49.646;8.560;2023-05-23T05:55:40;100510.59;;;17.30;85.20
34931;BME280;21134;49.646;8.560;2023-05-23T05:58:07;100514.59;;;17.40;84.74
34931;BME280;21134;49.646;8.560;2023-05-23T06:00:33;100518.03;;;17.40;84.89
34931;BME280;21134;49.646;8.560;2023-05-23T06:03:07;100511.41;;;17.61;80.97
34931;BME280;21134;49.646;8.560;2023-05-23T06:05:34;100514.50;;;17.73;82.26
34931;BME280;21134;49.646;8.560;2023-05-23T06:08:01;100520.41;;;17.78;80.00
34931;BME280;21134;49.646;8.560;2023-05-23T06:10:29;100522.16;;;17.76;79.08
34931;BME280;21134;49.646;8.560;2023-05-23T06:12:56;100519.81;;;17.68;79.06
34931;BME280;21134;49.646;8.560;2023-05-23T06:15:23;100519.50;;;17.79;78.59
34931;BME280;21134;49.646;8.560;2023-05-23T06:17:50;100526.25;;;17.84;77.17
34931;BME280;21134;49.646;8.560;2023-05-23T06:20:18;100527.53;;;17.70;76.48
34931;BME280;21134;49.646;8.560;2023-05-23T06:22:44;100534.28;;;17.46;77.65
34931;BME280;21134;49.646;8.560;2023-05-23T06:25:11;100537.13;;;17.66;75.96
34931;BME280;21134;49.646;8.560;2023-05-23T06:27:37;100535.78;;;17.53;76.66
34931;BME280;21134;49.646;8.560;2023-05-23T06:30:05;100542.34;;;17.64;75.76
34931;BME280;21134;49.646;8.560;2023-05-23T06:32:31;100543.06;;;17.40;76.84
34931;BME280;21134;49.646;8.560;2023-05-23T06:34:58;100543.13;;;17.37;76.59
34931;BME280;21134;49.646;8.560;2023-05-23T06:37:26;100541.06;;;17.48;76.56
34931;BME280;21134;49.646;8.560;2023-05-23T06:39:52;100541.22;;;17.43;76.83
34931;BME280;21134;49.646;8.560;2023-05-23T06:42:19;100544.97;;;17.63;75.72
34931;BME280;21134;49.646;8.560;2023-05-23T06:44:45;100553.00;;;17.54;76.19
34931;BME280;21134;49.646;8.560;2023-05-23T06:47:12;100550.19;;;17.61;75.67
34931;BME280;21134;49.646;8.560;2023-05-23T06:49:38;100553.47;;;17.66;76.09
34931;BME280;21134;49.646;8.560;2023-05-23T06:52:05;100560.31;;;17.69;76.11
34931;BME280;21134;49.646;8.560;2023-05-23T06:54:32;100562.72;;;17.75;75.96
34931;BME280;21134;49.646;8.560;2023-05-23T06:56:59;100561.69;;;17.82;75.50
34931;BME280;21134;49.646;8.560;2023-05-23T06:59:25;100567.00;;;17.78;74.25
34931;BME280;21134;49.646;8.560;2023-05-23T07:01:52;100565.19;;;17.80;74.36
34931;BME280;21134;49.646;8.560;2023-05-23T07:04:18;100568.00;;;17.72;75.36
34931;BME280;21134;49.646;8.560;2023-05-23T07:06:45;100574.09;;;17.70;75.79
34931;BME280;21134;49.646;8.560;2023-05-23T07:09:12;100578.75;;;17.58;76.82
34931;BME280;21134;49.646;8.560;2023-05-23T07:11:40;100576.09;;;17.61;76.19
34931;BME280;21134;49.646;8.560;2023-05-23T07:14:06;100579.63;;;17.57;76.29
34931;BME280;21134;49.646;8.560;2023-05-23T07:16:33;100577.22;;;17.51;76.94
34931;BME280;21134;49.646;8.560;2023-05-23T07:19:00;100585.56;;;17.61;77.10
34931;BME280;21134;49.646;8.560;2023-05-23T07:21:26;100575.88;;;17.67;75.99
34931;BME280;21134;49.646;8.560;2023-05-23T07:23:53;100579.94;;;17.76;75.13
34931;BME280;21134;49.646;8.560;2023-05-23T07:26:19;100581.88;;;17.99;72.47
34931;BME280;21134;49.646;8.560;2023-05-23T07:28:47;100586.69;;;18.11;72.91
34931;BME280;21134;49.646;8.560;2023-05-23T07:31:14;100585.09;;;18.07;71.76
34931;BME280;21134;49.646;8.560;2023-05-23T07:33:41;100587.88;;;18.01;70.22
34931;BME280;21134;49.646;8.560;2023-05-23T07:36:07;100592.88;;;18.06;71.45
34931;BME280;21134;49.646;8.560;2023-05-23T07:38:34;100584.56;;;17.96;72.35
34931;BME280;21134;49.646;8.560;2023-05-23T07:41:00;100583.31;;;18.09;69.61
34931;BME280;21134;49.646;8.560;2023-05-23T07:43:27;100587.72;;;18.06;69.17
34931;BME280;21134;49.646;8.560;2023-05-23T07:45:55;100588.59;;;18.06;69.31
34931;BME280;21134;49.646;8.560;2023-05-23T07:48:21;100575.44;;;18.12;68.80
34931;BME280;21134;49.646;8.560;2023-05-23T07:50:48;100586.31;;;18.24;69.51
34931;BME280;21134;49.646;8.560;2023-05-23T07:53:19;100589.25;;;18.41;68.86
34931;BME280;21134;49.646;8.560;2023-05-23T07:55:45;100588.72;;;18.56;68.72
34931;BME280;21134;49.646;8.560;2023-05-23T07:58:12;100587.16;;;18.79;69.67
34931;BME280;21134;49.646;8.560;2023-05-23T08:00:39;100586.53;;;18.97;66.66
34931;BME280;21134;49.646;8.560;2023-05-23T08:03:07;100589.03;;;19.00;66.37
34931;BME280;21134;49.646;8.560;2023-05-23T08:05:34;100587.44;;;18.96;66.00
34931;BME280;21134;49.646;8.560;2023-05-23T08:08:00;100597.91;;;18.93;66.40
34931;BME280;21134;49.646;8.560;2023-05-23T08:10:27;100588.28;;;18.97;65.70
34931;BME280;21134;49.646;8.560;2023-05-23T08:12:54;100593.94;;;18.83;67.00
34931;BME280;21134;49.646;8.560;2023-05-23T08:15:20;100590.53;;;18.81;66.73
34931;BME280;21134;49.646;8.560;2023-05-23T08:17:48;100601.75;;;18.55;67.09
34931;BME280;21134;49.646;8.560;2023-05-23T08:20:16;100593.59;;;18.39;68.02
34931;BME280;21134;49.646;8.560;2023-05-23T08:22:42;100596.00;;;18.45;67.39
34931;BME280;21134;49.646;8.560;2023-05-23T08:25:09;100594.66;;;18.33;68.63
34931;BME280;21134;49.646;8.560;2023-05-23T08:27:35;100596.41;;;18.59;67.95
34931;BME280;21134;49.646;8.560;2023-05-23T08:30:02;100592.66;;;18.95;66.28
34931;BME280;21134;49.646;8.560;2023-05-23T08:32:29;100594.63;;;19.38;65.21
34931;BME280;21134;49.646;8.560;2023-05-23T08:34:55;100588.16;;;20.19;63.02
34931;BME280;21134;49.646;8.560;2023-05-23T08:37:23;100598.25;;;20.27;61.28
34931;BME280;21134;49.646;8.560;2023-05-23T08:39:50;100588.94;;;20.21;62.45
34931;BME280;21134;49.646;8.560;2023-05-23T08:42:17;100596.03;;;20.17;61.63
34931;BME280;21134;49.646;8.560;2023-05-23T08:44:43;100595.78;;;20.24;61.36
34931;BME280;21134;49.646;8.560;2023-05-23T08:47:12;100602.91;;;20.40;61.01
34931;BME280;21134;49.646;8.560;2023-05-23T08:49:42;100594.91;;;20.67;61.08
34931;BME280;21134;49.646;8.560;2023-05-23T08:52:11;100597.72;;;21.24;59.25
34931;BME280;21134;49.646;8.560;2023-05-23T08:54:40;100598.56;;;20.83;58.76
34931;BME280;21134;49.646;8.560;2023-05-23T08:57:07;100607.28;;;20.82;59.45
34931;BME280;21134;49.646;8.560;2023-05-23T08:59:34;100601.09;;;20.64;60.35
34931;BME280;21134;49.646;8.560;2023-05-23T09:02:02;100607.78;;;20.48;61.39
34931;BME280;21134;49.646;8.560;2023-05-23T09:04:33;100601.38;;;20.35;61.40
34931;BME280;21134;49.646;8.560;2023-05-23T09:07:01;100607.13;;;20.21;61.42
34931;BME280;21134;49.646;8.560;2023-05-23T09:09:28;100601.50;;;20.10;61.50
34931;BME280;21134;49.646;8.560;2023-05-23T09:11:57;100592.41;;;20.42;59.87
34931;BME280;21134;49.646;8.560;2023-05-23T09:14:25;100596.88;;;20.82;59.83
34931;BME280;21134;49.646;8.560;2023-05-23T09:16:59;100594.84;;;21.30;58.53
34931;BME280;21134;49.646;8.560;2023-05-23T09:19:26;100607.41;;;21.41;58.80
34931;BME280;21134;49.646;8.560;2023-05-23T09:21:53;100605.06;;;21.14;58.48
34931;BME280;21134;49.646;8.560;2023-05-23T09:24:20;100610.22;;;20.95;59.42
34931;BME280;21134;49.646;8.560;2023-05-23T09:26:47;100606.56;;;20.79;60.94
34931;BME280;21134;49.646;8.560;2023-05-23T09:29:18;100614.34;;;20.58;59.46
34931;BME280;21134;49.646;8.560;2023-05-23T09:31:44;100611.88;;;20.55;60.43
34931;BME280;21134;49.646;8.560;2023-05-23T09:34:11;100605.72;;;20.99;59.30
34931;BME280;21134;49.646;8.560;2023-05-23T09:36:39;100599.41;;;21.45;58.36
34931;BME280;21134;49.646;8.560;2023-05-23T09:39:10;100605.25;;;21.50;57.15
34931;BME280;21134;49.646;8.560;2023-05-23T09:41:37;100604.34;;;21.31;59.21
34931;BME280;21134;49.646;8.560;2023-05-23T09:44:04;100608.03;;;21.06;59.85
34931;BME280;21134;49.646;8.560;2023-05-23T09:46:34;100613.06;;;20.89;60.40
34931;BME280;21134;49.646;8.560;2023-05-23T09:49:01;100619.59;;;20.57;61.82
34931;BME280;21134;49.646;8.560;2023-05-23T09:51:28;100613.72;;;20.30;62.47
34931;BME280;21134;49.646;8.560;2023-05-23T09:53:55;100611.00;;;19.87;62.78
34931;BME280;21134;49.646;8.560;2023-05-23T09:56:22;100614.25;;;19.70;64.15
34931;BME280;21134;49.646;8.560;2023-05-23T09:58:49;100615.28;;;19.66;65.29
34931;BME280;21134;49.646;8.560;2023-05-23T10:01:16;100614.84;;;19.77;64.75
34931;BME280;21134;49.646;8.560;2023-05-23T10:03:48;100620.41;;;20.35;63.11
34931;BME280;21134;49.646;8.560;2023-05-23T10:06:18;100617.44;;;20.88;61.08
34931;BME280;21134;49.646;8.560;2023-05-23T10:08:51;100615.50;;;20.94;61.61
34931;BME280;21134;49.646;8.560;2023-05-23T10:14:16;100612.66;;;21.59;58.90
34931;BME280;21134;49.646;8.560;2023-05-23T10:16:56;100619.81;;;22.11;56.79
34931;BME280;21134;49.646;8.560;2023-05-23T10:19:34;100625.91;;;21.74;57.76
34931;BME280;21134;49.646;8.560;2023-05-23T10:22:06;100627.47;;;21.97;57.34
34931;BME280;21134;49.646;8.560;2023-05-23T10:24:34;100622.16;;;21.61;58.18
34931;BME280;21134;49.646;8.560;2023-05-23T10:27:02;100619.00;;;21.13;59.42
34931;BME280;21134;49.646;8.560;2023-05-23T10:29:28;100625.13;;;20.48;61.63
34931;BME280;21134;49.646;8.560;2023-05-23T10:31:58;100623.13;;;20.32;63.36
34931;BME280;21134;49.646;8.560;2023-05-23T10:34:33;100617.69;;;20.38;62.83
34931;BME280;21134;49.646;8.560;2023-05-23T10:37:03;100624.59;;;20.17;62.17
34931;BME280;21134;49.646;8.560;2023-05-23T10:39:46;100626.16;;;20.21;60.77
34931;BME280;21134;49.646;8.560;2023-05-23T10:42:17;100624.41;;;20.22;61.52
34931;BME280;21134;49.646;8.560;2023-05-23T10:44:45;100622.41;;;20.07;62.41
34931;BME280;21134;49.646;8.560;2023-05-23T10:47:11;100628.56;;;20.48;61.26
34931;BME280;21134;49.646;8.560;2023-05-23T10:49:44;100629.56;;;20.46;62.01
34931;BME280;21134;49.646;8.560;2023-05-23T10:52:12;100636.47;;;20.69;60.50
34931;BME280;21134;49.646;8.560;2023-05-23T10:54:43;100632.25;;;20.86;59.69
34931;BME280;21134;49.646;8.560;2023-05-23T10:57:14;100626.16;;;21.08;59.40
34931;BME280;21134;49.646;8.560;2023-05-23T10:59:41;100633.84;;;21.11;58.87
34931;BME280;21134;49.646;8.560;2023-05-23T11:02:11;100627.38;;;20.99;59.20
34931;BME280;21134;49.646;8.560;2023-05-23T11:04:39;100640.72;;;21.32;59.64
34931;BME280;21134;49.646;8.560;2023-05-23T11:07:27;100637.53;;;21.46;58.36
34931;BME280;21134;49.646;8.560;2023-05-23T11:10:07;100633.88;;;21.30;58.02
34931;BME280;21134;49.646;8.560;2023-05-23T11:12:38;100628.38;;;21.38;58.30
34931;BME280;21134;49.646;8.560;2023-05-23T11:15:19;100631.97;;;21.35;57.31
34931;BME280;21134;49.646;8.560;2023-05-23T11:17:53;100627.13;;;21.46;56.79
34931;BME280;21134;49.646;8.560;2023-05-23T11:20:20;100624.16;;;21.74;56.19
34931;BME280;21134;49.646;8.560;2023-05-23T11:23:01;100627.88;;;21.69;56.21
34931;BME280;21134;49.646;8.560;2023-05-23T11:25:39;100625.63;;;21.20;57.05
34931;BME280;21134;49.646;8.560;2023-05-23T11:28:07;100625.53;;;21.03;56.95
34931;BME280;21134;49.646;8.560;2023-05-23T11:30:34;100633.78;;;21.12;57.14
34931;BME280;21134;49.646;8.560;2023-05-23T11:33:06;100627.97;;;20.85;58.57
34931;BME280;21134;49.646;8.560;2023-05-23T11:35:34;100614.38;;;20.99;59.02
34931;BME280;21134;49.646;8.560;2023-05-23T11:38:03;100621.97;;;21.24;58.68
34931;BME280;21134;49.646;8.560;2023-05-23T11:40:31;100626.59;;;21.18;57.38
34931;BME280;21134;49.646;8.560;2023-05-23T11:42:59;100623.94;;;21.19;57.51
34931;BME280;21134;49.646;8.560;2023-05-23T11:45:27;100633.03;;;21.29;57.20
34931;BME280;21134;49.646;8.560;2023-05-23T11:47:54;100627.16;;;21.65;56.33
34931;BME280;21134;49.646;8.560;2023-05-23T11:50:21;100630.94;;;22.16;55.45
34931;BME280;21134;49.646;8.560;2023-05-23T11:52:49;100623.59;;;22.24;54.54
34931;BME280;21134;49.646;8.560;2023-05-23T11:55:18;100635.97;;;22.00;56.31
34931;BME280;21134;49.646;8.560;2023-05-23T11:57:45;100631.28;;;21.90;57.30
34931;BME280;21134;49.646;8.560;2023-05-23T12:00:12;100637.81;;;21.79;57.69
34931;BME280;21134;49.646;8.560;2023-05-23T12:02:40;100632.47;;;21.82;58.11
34931;BME280;21134;49.646;8.560;2023-05-23T12:05:07;100636.81;;;22.01;58.22
34931;BME280;21134;49.646;8.560;2023-05-23T12:07:34;100641.19;;;22.00;57.73
34931;BME280;21134;49.646;8.560;2023-05-23T12:10:02;100633.94;;;21.88;56.31
34931;BME280;21134;49.646;8.560;2023-05-23T12:12:30;100622.53;;;22.10;57.06
34931;BME280;21134;49.646;8.560;2023-05-23T12:14:58;100629.38;;;22.31;57.31
34931;BME280;21134;49.646;8.560;2023-05-23T12:17:25;100638.72;;;22.35;55.63
34931;BME280;21134;49.646;8.560;2023-05-23T12:19:51;100627.50;;;22.33;55.83
34931;BME280;21134;49.646;8.560;2023-05-23T12:22:21;100629.28;;;22.33;57.38
34931;BME280;21134;49.646;8.560;2023-05-23T12:24:52;100639.22;;;21.87;59.38
34931;BME280;21134;49.646;8.560;2023-05-23T12:27:19;100648.25;;;21.79;59.83
34931;BME280;21134;49.646;8.560;2023-05-23T12:29:50;100639.22;;;21.87;59.72
34931;BME280;21134;49.646;8.560;2023-05-23T12:32:16;100647.03;;;21.68;60.44
34931;BME280;21134;49.646;8.560;2023-05-23T12:34:43;100639.31;;;21.25;61.08
34931;BME280;21134;49.646;8.560;2023-05-23T12:37:12;100634.09;;;21.46;60.39
34931;BME280;21134;49.646;8.560;2023-05-23T12:39:42;100635.69;;;21.88;59.36
34931;BME280;21134;49.646;8.560;2023-05-23T12:42:09;100637.03;;;21.96;60.47
34931;BME280;21134;49.646;8.560;2023-05-23T12:44:36;100633.03;;;21.89;58.75
34931;BME280;21134;49.646;8.560;2023-05-23T12:47:04;100641.44;;;21.56;60.23
34931;BME280;21134;49.646;8.560;2023-05-23T12:49:30;100645.88;;;21.13;61.83
34931;BME280;21134;49.646;8.560;2023-05-23T12:51:57;100641.34;;;21.39;59.93
34931;BME280;21134;49.646;8.560;2023-05-23T12:54:23;100644.91;;;21.76;60.03